Time;durP1;ratioP1;P1;durP2;ratioP2;P2;SDS_P1;SDS_P2;PMS_P1;PMS_P2;Temp;Humidity;BMP_temperature;BMP_pressure;BME280_temperature;BME280_humidity;BME280_pressure;Samples;Min_cycle;Max_cycle;Signal;HPM_P1;HPM_P2
2023/06/25 00:02:01;;;;;;;4.53;4.10;;;;;;;20.08;82.92;100576.63;5096068;28;20183;-72
2023/06/25 00:04:27;;;;;;;4.57;4.17;;;;;;;20.02;83.15;100579.56;5087857;28;20243;-73
2023/06/25 00:06:52;;;;;;;4.60;4.20;;;;;;;19.99;84.75;100581.44;5094999;28;20199;-73
2023/06/25 00:09:17;;;;;;;4.37;4.07;;;;;;;19.93;86.10;100579.94;5083278;28;20310;-72
2023/06/25 00:11:43;;;;;;;4.73;4.23;;;;;;;19.86;86.63;100576.69;5082935;28;20671;-72
2023/06/25 00:14:08;;;;;;;4.27;3.87;;;;;;;19.77;85.85;100577.09;5086281;28;20244;-72
2023/06/25 00:16:33;;;;;;;4.27;3.97;;;;;;;19.70;85.06;100576.50;5093001;28;20179;-73
2023/06/25 00:19:00;;;;;;;4.03;3.73;;;;;;;19.64;85.44;100568.88;5084826;28;20389;-73
2023/06/25 00:21:26;;;;;;;4.63;4.30;;;;;;;19.60;86.32;100564.66;5085358;28;20192;-73
2023/06/25 00:23:51;;;;;;;4.20;3.90;;;;;;;19.55;86.66;100566.66;5087566;28;20200;-71
2023/06/25 00:26:16;;;;;;;4.67;4.23;;;;;;;19.51;85.74;100565.94;5088382;28;21224;-72
2023/06/25 00:28:42;;;;;;;4.23;3.93;;;;;;;19.46;85.51;100562.63;5080047;28;20181;-73
2023/06/25 00:31:07;;;;;;;4.43;4.10;;;;;;;19.46;86.02;100565.25;5084128;28;20206;-74
2023/06/25 00:33:32;;;;;;;4.43;4.13;;;;;;;19.43;85.91;100563.63;5085359;28;20213;-74
2023/06/25 00:35:57;;;;;;;4.20;3.90;;;;;;;19.42;86.13;100567.16;5081505;28;20274;-72
2023/06/25 00:38:23;;;;;;;3.93;3.63;;;;;;;19.42;86.40;100555.81;5083457;28;20216;-74
2023/06/25 00:40:50;;;;;;;5.27;4.23;;;;;;;19.42;86.89;100555.81;5095395;28;20232;-74
2023/06/25 00:43:15;;;;;;;4.50;4.10;;;;;;;19.44;85.96;100553.97;5087558;28;20590;-72
2023/06/25 00:45:42;;;;;;;4.90;4.40;;;;;;;19.43;86.20;100560.13;5090276;28;20749;-72
2023/06/25 00:48:08;;;;;;;5.00;4.60;;;;;;;19.39;86.83;100554.16;5107755;28;20205;-72
2023/06/25 00:50:33;;;;;;;3.93;3.63;;;;;;;19.39;88.97;100555.91;5092132;28;20238;-73
2023/06/25 00:53:01;;;;;;;3.63;3.43;;;;;;;19.37;90.25;100545.50;5085508;28;20300;-73
2023/06/25 00:55:28;;;;;;;4.23;3.90;;;;;;;19.32;90.82;100550.94;5091198;28;20234;-72
2023/06/25 00:57:56;;;;;;;4.20;3.90;;;;;;;19.27;91.37;100545.03;5083360;28;21010;-72
2023/06/25 01:00:24;;;;;;;4.60;4.20;;;;;;;19.22;92.21;100543.50;5085903;28;20645;-72
2023/06/25 01:03:16;;;;;;;4.30;4.00;;;;;;;19.16;92.18;100542.00;5083250;28;20263;-74
2023/06/25 01:06:15;;;;;;;3.80;3.50;;;;;;;19.11;93.07;100546.56;5081691;28;20201;-73
2023/06/25 01:08:50;;;;;;;4.50;4.07;;;;;;;19.06;93.48;100536.25;5083668;28;20360;-72
2023/06/25 01:11:17;;;;;;;4.43;4.10;;;;;;;19.01;94.10;100532.97;5086180;28;20270;-72
2023/06/25 01:13:43;;;;;;;4.63;4.23;;;;;;;18.99;94.19;100542.66;5083363;28;20246;-73
2023/06/25 01:16:08;;;;;;;4.57;4.27;;;;;;;18.93;94.54;100538.47;5090774;28;20548;-72
2023/06/25 01:18:33;;;;;;;4.33;4.03;;;;;;;18.89;94.24;100537.75;5084880;28;20194;-72
2023/06/25 01:21:00;;;;;;;4.40;4.10;;;;;;;18.87;95.43;100536.13;5077972;28;20329;-73
2023/06/25 01:23:28;;;;;;;4.20;3.90;;;;;;;18.80;95.34;100525.03;5084375;28;20202;-72
2023/06/25 01:25:53;;;;;;;4.40;4.10;;;;;;;18.73;95.07;100527.03;5082922;28;20177;-72
2023/06/25 01:28:20;;;;;;;4.67;4.27;;;;;;;18.62;94.96;100518.72;5080282;28;20246;-72
2023/06/25 01:30:51;;;;;;;4.77;4.17;;;;;;;18.53;94.80;100529.56;5097398;28;20198;-71
2023/06/25 01:33:19;;;;;;;4.37;4.00;;;;;;;18.44;95.17;100520.28;5079765;28;20203;-72
2023/06/25 01:35:44;;;;;;;4.60;4.30;;;;;;;18.36;94.50;100527.59;5083002;28;20283;-72
2023/06/25 01:38:10;;;;;;;4.63;4.33;;;;;;;18.27;94.66;100520.94;5088911;28;20185;-72
2023/06/25 01:40:36;;;;;;;4.40;3.93;;;;;;;18.19;94.98;100515.97;5084756;28;20736;-72
2023/06/25 01:43:01;;;;;;;4.30;4.00;;;;;;;18.13;95.16;100521.44;5082482;28;20202;-72
2023/06/25 01:45:26;;;;;;;5.20;4.73;;;;;;;18.07;95.49;100521.69;5079666;28;20250;-72
2023/06/25 01:47:52;;;;;;;4.50;4.20;;;;;;;18.03;95.35;100520.06;5083077;28;20200;-72
2023/06/25 01:50:17;;;;;;;4.97;4.57;;;;;;;17.97;96.43;100523.75;5076416;28;20681;-72
2023/06/25 01:52:43;;;;;;;4.57;4.17;;;;;;;17.92;96.78;100517.81;5095181;28;20199;-72
2023/06/25 01:55:08;;;;;;;4.50;4.10;;;;;;;17.87;96.80;100511.88;5094877;28;20189;-73
2023/06/25 01:57:33;;;;;;;4.70;4.40;;;;;;;17.81;97.10;100513.81;5080872;28;20181;-73
2023/06/25 01:59:59;;;;;;;4.60;4.30;;;;;;;17.77;97.05;100508.75;5082082;28;20190;-73
2023/06/25 02:02:24;;;;;;;4.30;4.00;;;;;;;17.73;97.20;100507.16;5084276;28;20223;-73
2023/06/25 02:04:49;;;;;;;4.40;4.00;;;;;;;17.66;96.49;100511.75;5080383;28;20173;-72
2023/06/25 02:07:15;;;;;;;4.57;4.17;;;;;;;17.61;96.77;100506.66;5084287;28;20205;-72
2023/06/25 02:09:40;;;;;;;4.47;4.17;;;;;;;17.59;97.29;100508.47;5088424;28;20661;-73
2023/06/25 02:12:06;;;;;;;5.03;4.63;;;;;;;17.55;97.07;100509.50;5089967;28;20207;-72
2023/06/25 02:14:31;;;;;;;4.90;4.50;;;;;;;17.49;97.40;100509.69;5095820;28;20201;-72
2023/06/25 02:16:57;;;;;;;4.17;3.87;;;;;;;17.43;97.05;100509.91;5089255;28;20715;-72
2023/06/25 02:19:22;;;;;;;4.60;4.30;;;;;;;17.36;97.09;100507.50;5089170;28;20177;-72
2023/06/25 02:21:47;;;;;;;4.20;3.90;;;;;;;17.33;97.58;100499.75;5078040;28;20211;-73
2023/06/25 02:24:13;;;;;;;4.53;4.13;;;;;;;17.27;97.96;100505.19;5094635;28;20208;-73
2023/06/25 02:26:40;;;;;;;4.40;4.00;;;;;;;17.24;98.13;100499.22;5090861;28;20239;-73
2023/06/25 02:29:05;;;;;;;4.47;4.07;;;;;;;17.19;98.54;100507.19;5102900;28;20214;-73
2023/06/25 02:31:30;;;;;;;4.50;4.13;;;;;;;17.15;98.75;100496.00;5094742;28;20656;-73
2023/06/25 02:33:56;;;;;;;5.20;4.80;;;;;;;17.13;98.81;100500.41;5095480;27;20287;-73
2023/06/25 02:36:21;;;;;;;4.60;4.30;;;;;;;17.11;99.24;100507.44;5072419;28;20189;-73
2023/06/25 02:38:46;;;;;;;3.87;3.47;;;;;;;17.10;99.46;100500.50;5093843;28;20188;-73
2023/06/25 02:41:12;;;;;;;4.93;4.53;;;;;;;17.09;99.75;100505.78;5092605;28;20222;-73
2023/06/25 02:43:37;;;;;;;4.80;4.40;;;;;;;17.06;100.00;100512.00;5090094;28;20301;-73
2023/06/25 02:46:02;;;;;;;4.53;4.23;;;;;;;17.04;100.00;100505.94;5087359;28;20184;-73
2023/06/25 02:48:28;;;;;;;4.43;4.13;;;;;;;17.00;100.00;100505.22;5090927;28;20186;-72
2023/06/25 02:50:54;;;;;;;5.10;4.70;;;;;;;16.97;100.00;100501.81;5094079;28;20471;-73
2023/06/25 02:53:19;;;;;;;4.77;4.40;;;;;;;16.94;100.00;100499.28;5102294;28;20227;-73
2023/06/25 02:55:44;;;;;;;4.90;4.50;;;;;;;16.88;100.00;100501.19;5106997;28;20280;-73
2023/06/25 02:58:09;;;;;;;4.67;4.37;;;;;;;16.83;100.00;100502.25;5088439;28;20187;-73
2023/06/25 03:00:35;;;;;;;5.00;4.60;;;;;;;16.79;100.00;100500.63;5089304;28;20185;-73
2023/06/25 03:03:00;;;;;;;4.70;4.40;;;;;;;16.76;100.00;100506.81;5099620;28;20195;-73
2023/06/25 03:05:25;;;;;;;4.77;4.37;;;;;;;16.75;100.00;100503.31;5103813;28;20765;-74
2023/06/25 03:07:56;;;;;;;4.70;4.30;;;;;;;16.73;100.00;100502.50;5082290;28;20207;-73
2023/06/25 03:10:24;;;;;;;4.40;4.10;;;;;;;16.72;100.00;100489.50;5083319;28;20873;-72
2023/06/25 03:12:49;;;;;;;5.00;4.60;;;;;;;16.71;100.00;100504.31;5087195;28;20238;-73
2023/06/25 03:15:14;;;;;;;4.93;4.53;;;;;;;16.69;100.00;100503.53;5090586;28;20216;-73
2023/06/25 03:17:40;;;;;;;5.20;4.80;;;;;;;16.64;100.00;100497.59;5086458;28;20185;-73
2023/06/25 03:20:06;;;;;;;4.73;4.33;;;;;;;16.58;100.00;100497.75;5087807;28;20609;-74
2023/06/25 03:22:39;;;;;;;4.77;4.40;;;;;;;16.54;100.00;100498.78;5093022;28;20561;-74
2023/06/25 03:25:05;;;;;;;5.20;4.80;;;;;;;16.49;100.00;100503.28;5084700;28;20208;-74
2023/06/25 03:27:33;;;;;;;4.97;4.57;;;;;;;16.43;100.00;100507.78;5085128;28;20236;-73
2023/06/25 03:29:58;;;;;;;5.07;4.67;;;;;;;16.40;100.00;100507.88;5088959;28;20983;-72
2023/06/25 03:32:23;;;;;;;4.83;4.43;;;;;;;16.38;100.00;100507.06;5096115;28;20258;-73
2023/06/25 03:34:49;;;;;;;4.73;4.43;;;;;;;16.37;100.00;100501.88;5079560;28;20197;-73
2023/06/25 03:37:14;;;;;;;4.43;4.13;;;;;;;16.35;100.00;100507.16;5094465;28;20200;-73
2023/06/25 03:39:39;;;;;;;4.83;4.50;;;;;;;16.32;100.00;100506.41;5092553;28;20594;-72
2023/06/25 03:42:05;;;;;;;4.90;4.50;;;;;;;16.30;100.00;100503.81;5086320;28;20193;-72
2023/06/25 03:44:30;;;;;;;4.77;4.37;;;;;;;16.31;100.00;100505.53;5084940;28;20211;-73
2023/06/25 03:46:56;;;;;;;4.97;4.60;;;;;;;16.34;100.00;100499.34;5089497;28;20639;-71
2023/06/25 03:49:21;;;;;;;4.83;4.50;;;;;;;16.38;100.00;100495.75;5091762;28;20724;-73
2023/06/25 03:51:46;;;;;;;4.77;4.37;;;;;;;16.45;100.00;100494.69;5086129;28;20201;-73
2023/06/25 03:54:11;;;;;;;5.07;4.67;;;;;;;16.58;100.00;100489.91;5095412;28;20220;-73
2023/06/25 03:56:37;;;;;;;5.17;4.77;;;;;;;16.80;100.00;100487.50;5085251;28;20181;-73
2023/06/25 03:59:02;;;;;;;4.63;4.30;;;;;;;17.14;100.00;100489.06;5097118;28;20197;-73
2023/06/25 04:01:27;;;;;;;4.73;4.43;;;;;;;17.47;100.00;100480.97;5090561;28;20263;-72
2023/06/25 04:03:53;;;;;;;4.50;4.20;;;;;;;17.87;99.26;100496.16;5084109;28;20209;-73
2023/06/25 04:06:18;;;;;;;4.20;3.90;;;;;;;18.08;97.90;100494.56;5088740;28;20288;-73
2023/06/25 04:08:43;;;;;;;5.13;4.63;;;;;;;18.10;97.44;100490.97;5091798;28;20255;-73
2023/06/25 04:11:08;;;;;;;5.20;4.80;;;;;;;18.09;97.22;100491.03;5086754;28;20268;-73
2023/06/25 04:13:34;;;;;;;4.87;4.47;;;;;;;18.01;96.91;100495.69;5086845;28;20210;-73
2023/06/25 04:15:59;;;;;;;5.00;4.50;;;;;;;17.92;96.63;100489.84;5082114;28;20225;-72
2023/06/25 04:18:24;;;;;;;4.83;4.43;;;;;;;17.87;96.29;100494.41;5085647;28;20224;-73
2023/06/25 04:20:50;;;;;;;5.17;4.77;;;;;;;17.86;96.67;100497.94;5088639;28;20665;-72
2023/06/25 04:23:17;;;;;;;4.80;4.47;;;;;;;18.08;96.67;100492.81;5081563;28;20216;-73
2023/06/25 04:25:43;;;;;;;5.03;4.63;;;;;;;18.37;95.71;100487.38;5077850;28;20205;-73
2023/06/25 04:28:15;;;;;;;4.97;4.57;;;;;;;18.43;94.99;100490.63;5077875;28;20620;-73
2023/06/25 04:30:40;;;;;;;4.67;4.27;;;;;;;18.42;94.84;100485.44;5084155;28;20221;-71
2023/06/25 04:33:06;;;;;;;5.00;4.60;;;;;;;18.42;94.95;100488.91;5090499;28;20336;-72
2023/06/25 04:35:32;;;;;;;4.73;4.33;;;;;;;18.45;95.03;100493.19;5085058;28;20592;-72
2023/06/25 04:37:58;;;;;;;5.07;4.67;;;;;;;18.46;95.20;100492.25;5089579;28;20210;-72
2023/06/25 04:40:23;;;;;;;5.00;4.60;;;;;;;18.61;95.44;100496.03;5087349;28;20191;-73
2023/06/25 04:42:48;;;;;;;5.13;4.73;;;;;;;19.14;94.79;100488.72;5077908;28;20311;-73
2023/06/25 04:45:14;;;;;;;5.43;4.97;;;;;;;20.00;92.49;100499.09;5094599;28;20187;-72
2023/06/25 04:47:39;;;;;;;5.10;4.67;;;;;;;20.82;88.85;100490.03;5078240;28;20955;-73
2023/06/25 04:50:05;;;;;;;4.77;4.37;;;;;;;21.67;85.18;100492.88;5087459;28;20220;-73
2023/06/25 04:52:31;;;;;;;4.60;4.30;;;;;;;22.51;81.78;100489.28;5081347;28;20274;-73
2023/06/25 04:54:56;;;;;;;4.43;4.03;;;;;;;23.07;79.38;100494.03;5098684;28;20192;-73
2023/06/25 04:57:21;;;;;;;3.97;3.67;;;;;;;23.60;78.64;100490.03;5086339;28;20718;-72
2023/06/25 04:59:47;;;;;;;3.90;3.60;;;;;;;24.09;77.77;100487.97;5091816;28;20193;-73
2023/06/25 05:02:12;;;;;;;4.10;3.80;;;;;;;24.72;75.60;100491.06;5091194;28;20311;-72
2023/06/25 05:04:37;;;;;;;5.30;4.53;;;;;;;25.09;73.41;100493.94;5084284;28;20988;-73
2023/06/25 05:07:03;;;;;;;3.90;3.60;;;;;;;25.42;73.43;100489.97;5100242;28;20298;-73
2023/06/25 05:09:28;;;;;;;4.43;4.03;;;;;;;25.72;70.89;100495.91;5092184;28;20189;-73
2023/06/25 05:11:54;;;;;;;4.33;3.93;;;;;;;26.30;70.17;100495.41;5084402;28;20650;-70
2023/06/25 05:14:19;;;;;;;4.13;3.73;;;;;;;26.68;67.70;100499.75;5085118;28;20834;-73
2023/06/25 05:16:44;;;;;;;4.30;3.60;;;;;;;26.43;66.94;100500.69;5083875;28;20197;-75
2023/06/25 05:19:10;;;;;;;4.30;4.00;;;;;;;26.65;66.67;100499.09;5088511;28;20188;-74
2023/06/25 05:21:35;;;;;;;3.92;3.63;;;;;;;25.78;66.35;100500.81;5087729;28;20188;-73
2023/06/25 05:24:03;;;;;;;4.30;4.00;;;;;;;26.04;66.50;100503.41;5080378;28;20213;-72
2023/06/25 05:26:29;;;;;;;3.85;3.55;;;;;;;26.25;66.49;100501.06;5078700;28;20891;-73
2023/06/25 05:28:55;;;;;;;4.85;3.63;;;;;;;27.24;65.04;100503.59;5091078;28;20212;-75
2023/06/25 05:31:20;;;;;;;4.03;3.70;;;;;;;27.60;64.48;100493.81;5080396;28;20193;-73
2023/06/25 05:33:45;;;;;;;4.22;3.92;;;;;;;27.13;63.82;100509.72;5077756;28;20732;-73
2023/06/25 05:36:12;;;;;;;3.75;3.50;;;;;;;28.03;63.09;100502.84;5078646;28;20189;-73
2023/06/25 05:38:38;;;;;;;3.53;3.22;;;;;;;28.44;62.17;100508.53;5084172;28;20177;-73
2023/06/25 05:41:03;;;;;;;4.40;4.00;;;;;;;27.29;62.88;100503.25;5083723;28;20689;-73
2023/06/25 05:43:28;;;;;;;4.07;3.78;;;;;;;28.29;61.92;100505.25;5095196;28;20205;-73
2023/06/25 05:45:54;;;;;;;4.75;4.30;;;;;;;28.06;61.15;100501.78;5097949;28;20223;-72
2023/06/25 05:48:19;;;;;;;3.88;3.58;;;;;;;27.53;62.16;100505.88;5080664;28;20292;-73
2023/06/25 05:50:44;;;;;;;4.40;4.10;;;;;;;27.05;62.05;100502.34;5087413;28;20288;-73
2023/06/25 05:53:10;;;;;;;4.20;3.90;;;;;;;27.15;63.09;100499.84;5078966;28;21196;-73
2023/06/25 05:55:35;;;;;;;4.32;4.03;;;;;;;27.37;62.79;100498.22;5093895;28;20188;-72
2023/06/25 05:58:00;;;;;;;3.78;3.47;;;;;;;28.57;61.64;100503.88;5090089;28;20256;-73
2023/06/25 06:00:26;;;;;;;4.18;3.83;;;;;;;28.89;60.54;100495.09;5098412;28;20181;-75
2023/06/25 06:02:51;;;;;;;4.00;3.70;;;;;;;28.52;61.00;100487.44;5097383;28;20703;-73
2023/06/25 06:05:17;;;;;;;4.13;3.83;;;;;;;28.55;60.48;100489.84;5098151;28;20241;-73
2023/06/25 06:07:43;;;;;;;3.95;3.65;;;;;;;29.08;61.51;100482.88;5094251;28;20208;-73
2023/06/25 06:10:09;;;;;;;3.78;3.47;;;;;;;30.02;60.47;100487.34;5088025;28;20751;-73
2023/06/25 06:12:34;;;;;;;4.18;3.78;;;;;;;30.49;59.14;100491.22;5084611;28;20205;-74
2023/06/25 06:14:59;;;;;;;3.53;3.22;;;;;;;30.65;58.73;100482.69;5086973;28;21007;-74
2023/06/25 06:17:25;;;;;;;3.83;3.53;;;;;;;30.76;57.80;100484.41;5092432;28;20799;-74
2023/06/25 06:19:50;;;;;;;4.40;4.00;;;;;;;30.81;58.16;100484.78;5083021;28;20181;-73
2023/06/25 06:22:16;;;;;;;3.88;3.65;;;;;;;29.99;58.48;100481.41;5090223;28;20231;-74
2023/06/25 06:24:42;;;;;;;4.20;3.90;;;;;;;30.35;58.79;100485.28;5098526;28;20180;-73
2023/06/25 06:27:08;;;;;;;4.63;4.32;;;;;;;29.32;59.48;100490.63;5086168;28;20691;-73
2023/06/25 06:29:33;;;;;;;3.95;3.65;;;;;;;29.66;60.18;100485.06;5080392;28;20196;-73
2023/06/25 06:31:58;;;;;;;3.97;3.75;;;;;;;29.72;59.57;100485.50;5091829;28;20195;-73
2023/06/25 06:34:24;;;;;;;4.32;4.03;;;;;;;29.48;59.88;100484.00;5090134;28;20752;-74
2023/06/25 06:36:49;;;;;;;3.83;3.63;;;;;;;29.86;59.74;100486.97;5078220;28;20182;-73
2023/06/25 06:39:17;;;;;;;4.10;3.80;;;;;;;29.46;60.23;100486.78;5093091;28;20199;-73
2023/06/25 06:41:43;;;;;;;3.58;3.30;;;;;;;29.96;59.78;100487.88;5097390;28;20262;-73
2023/06/25 06:44:16;;;;;;;4.50;4.10;;;;;;;29.20;60.55;100488.97;5089229;28;20209;-74
2023/06/25 06:46:43;;;;;;;4.00;3.70;;;;;;;29.71;59.93;100481.16;5085285;28;20250;-73
2023/06/25 06:49:09;;;;;;;4.55;4.18;;;;;;;29.30;60.21;100487.22;5090580;28;20731;-74
2023/06/25 06:51:36;;;;;;;4.65;4.25;;;;;;;30.03;59.47;100482.84;5084156;28;20185;-73
2023/06/25 06:54:01;;;;;;;5.32;4.15;;;;;;;29.68;59.36;100481.41;5085501;28;20692;-72
2023/06/25 06:56:27;;;;;;;4.50;4.20;;;;;;;27.93;62.23;100497.41;5081254;28;20192;-73
2023/06/25 06:58:52;;;;;;;5.20;4.80;;;;;;;28.17;62.16;100492.94;5096377;28;20185;-73
2023/06/25 07:01:17;;;;;;;4.93;4.53;;;;;;;28.67;61.76;100497.78;5091755;28;20889;-73
2023/06/25 07:03:43;;;;;;;4.40;4.00;;;;;;;28.66;61.52;100491.63;5094107;28;20229;-74
2023/06/25 07:06:08;;;;;;;4.82;4.32;;;;;;;28.44;62.00;100487.22;5084436;28;20193;-74
2023/06/25 07:08:34;;;;;;;4.88;4.53;;;;;;;29.16;61.24;100475.06;5089601;28;20211;-73
2023/06/25 07:10:59;;;;;;;4.25;3.85;;;;;;;29.13;60.89;100477.16;5086403;28;20189;-74
2023/06/25 07:13:25;;;;;;;4.50;4.10;;;;;;;27.42;62.97;100479.25;5088321;28;20240;-73
2023/06/25 07:15:50;;;;;;;4.65;4.25;;;;;;;27.12;64.31;100464.69;5081805;28;20197;-73
2023/06/25 07:18:15;;;;;;;4.30;4.00;;;;;;;27.38;64.28;100467.97;5078349;28;20184;-74
2023/06/25 07:20:41;;;;;;;4.07;3.80;;;;;;;27.56;63.86;100467.56;5087258;28;20266;-73
2023/06/25 07:23:06;;;;;;;5.03;4.63;;;;;;;26.96;64.16;100467.66;5083120;28;20208;-73
2023/06/25 07:25:31;;;;;;;4.35;4.03;;;;;;;26.89;65.49;100465.47;5091891;28;20185;-74
2023/06/25 07:27:57;;;;;;;4.50;4.10;;;;;;;27.37;64.33;100466.31;5078971;28;20254;-74
2023/06/25 07:30:22;;;;;;;4.38;4.00;;;;;;;27.93;64.07;100473.47;5078736;28;20182;-73
2023/06/25 07:32:47;;;;;;;5.07;4.32;;;;;;;27.79;63.51;100471.06;5086215;28;20582;-73
2023/06/25 07:35:13;;;;;;;4.47;4.07;;;;;;;28.18;62.90;100473.38;5098330;27;20186;-74
2023/06/25 07:37:39;;;;;;;4.57;4.22;;;;;;;27.20;64.05;100475.56;5073140;28;20770;-74
2023/06/25 07:40:05;;;;;;;4.15;3.85;;;;;;;28.30;62.74;100475.03;5071286;28;20201;-73
2023/06/25 07:42:31;;;;;;;4.43;4.03;;;;;;;28.80;62.09;100461.25;5090471;28;20232;-73
2023/06/25 07:44:56;;;;;;;4.90;4.40;;;;;;;29.09;61.74;100463.25;5081666;28;20272;-74
2023/06/25 07:47:21;;;;;;;4.82;4.40;;;;;;;28.35;61.55;100459.53;5081311;28;20280;-73
2023/06/25 07:49:47;;;;;;;4.55;4.25;;;;;;;26.95;63.93;100463.31;5080275;28;20215;-74
2023/06/25 07:52:12;;;;;;;4.78;4.15;;;;;;;27.46;63.50;100459.44;5106839;27;20245;-74
2023/06/25 07:54:38;;;;;;;5.15;4.63;;;;;;;27.74;63.46;100467.94;5084375;27;20193;-73
2023/06/25 07:57:03;;;;;;;4.70;4.30;;;;;;;28.16;63.04;100462.00;5081250;28;20185;-74
2023/06/25 07:59:28;;;;;;;4.55;4.25;;;;;;;27.56;64.00;100462.25;5086646;28;20196;-73
2023/06/25 08:01:54;;;;;;;5.28;4.88;;;;;;;26.99;63.64;100464.78;5086444;28;20190;-74
2023/06/25 08:04:19;;;;;;;4.78;4.38;;;;;;;26.79;63.51;100459.16;5090601;28;20743;-74
2023/06/25 08:06:44;;;;;;;4.57;4.20;;;;;;;27.41;62.79;100451.81;5093644;28;20795;-74
2023/06/25 08:09:10;;;;;;;4.90;4.50;;;;;;;27.45;63.02;100463.94;5084455;28;20181;-74
2023/06/25 08:11:36;;;;;;;5.38;4.88;;;;;;;27.68;63.21;100456.81;5078728;28;20722;-75
2023/06/25 08:14:01;;;;;;;4.70;4.38;;;;;;;27.37;62.75;100453.88;5075308;28;20958;-74
2023/06/25 08:16:29;;;;;;;4.63;4.22;;;;;;;26.91;64.85;100454.72;5076977;28;20194;-74
2023/06/25 08:18:55;;;;;;;4.82;4.43;;;;;;;27.34;63.28;100450.59;5086442;28;20185;-74
2023/06/25 08:21:20;;;;;;;4.85;4.45;;;;;;;27.64;62.05;100450.03;5081832;28;20242;-74
2023/06/25 08:23:45;;;;;;;4.85;4.45;;;;;;;27.89;62.37;100447.25;5098929;28;20211;-74
2023/06/25 08:26:13;;;;;;;4.65;4.30;;;;;;;28.31;62.18;100443.94;5088674;28;20661;-75
2023/06/25 08:28:39;;;;;;;4.75;4.35;;;;;;;27.67;63.13;100448.97;5088365;28;20217;-75
2023/06/25 08:31:04;;;;;;;5.20;4.72;;;;;;;27.68;63.56;100443.53;5080444;28;20247;-74
2023/06/25 08:33:29;;;;;;;4.55;4.15;;;;;;;27.84;60.65;100444.97;5080458;28;20212;-74
2023/06/25 08:35:56;;;;;;;4.20;3.83;;;;;;;27.77;60.20;100451.72;5088450;28;20199;-73
2023/06/25 08:38:24;;;;;;;4.70;4.30;;;;;;;27.87;59.09;100452.72;5090395;28;20192;-74
2023/06/25 08:40:52;;;;;;;4.63;4.20;;;;;;;28.13;58.15;100449.78;5082673;28;20318;-74
2023/06/25 08:43:18;;;;;;;4.50;4.10;;;;;;;28.13;57.66;100442.66;5079161;28;20206;-74
2023/06/25 08:45:43;;;;;;;5.28;4.07;;;;;;;27.43;59.05;100455.19;5075554;28;20201;-74
2023/06/25 08:48:15;;;;;;;4.50;4.20;;;;;;;27.42;58.06;100436.72;5069200;28;20208;-72
2023/06/25 08:50:43;;;;;;;4.72;4.28;;;;;;;27.40;58.59;100442.16;5070533;28;20213;-73
2023/06/25 08:53:09;;;;;;;4.53;4.22;;;;;;;27.56;57.90;100438.31;5068868;28;20222;-74
2023/06/25 08:55:35;;;;;;;5.05;4.65;;;;;;;27.61;57.76;100430.84;5077941;28;20194;-73
2023/06/25 08:58:00;;;;;;;4.70;4.30;;;;;;;27.74;56.70;100433.38;5072595;28;20242;-75
2023/06/25 09:00:26;;;;;;;4.53;4.13;;;;;;;27.23;56.09;100432.84;5074212;28;20198;-73
2023/06/25 09:02:53;;;;;;;5.13;4.63;;;;;;;27.44;56.47;100422.34;5080850;28;20223;-74
2023/06/25 09:05:27;;;;;;;4.87;3.97;;;;;;;27.63;56.75;100427.09;5079360;28;20197;-74
2023/06/25 09:07:53;;;;;;;4.47;4.17;;;;;;;27.76;56.27;100420.78;5080326;28;20592;-74
2023/06/25 09:10:20;;;;;;;5.93;4.27;;;;;;;27.50;54.96;100429.88;5096921;28;20633;-74
2023/06/25 09:12:49;;;;;;;5.13;4.10;;;;;;;27.42;55.07;100428.75;5078240;28;20295;-74
2023/06/25 09:15:22;;;;;;;5.27;4.83;;;;;;;27.44;55.21;100417.03;5084609;28;20200;-74
2023/06/25 09:17:48;;;;;;;5.77;4.73;;;;;;;27.38;54.58;100414.84;5081966;28;20262;-73
2023/06/25 09:20:13;;;;;;;4.93;4.43;;;;;;;27.30;54.14;100415.44;5083433;28;20660;-74
2023/06/25 09:22:53;;;;;;;5.80;4.67;;;;;;;27.25;54.37;100396.38;5082723;28;20291;-73
2023/06/25 09:25:20;;;;;;;5.07;4.67;;;;;;;27.37;54.37;100403.38;5086938;28;20202;-74
2023/06/25 09:27:48;;;;;;;4.60;4.20;;;;;;;27.57;54.51;100406.31;5077855;28;20718;-75
2023/06/25 09:30:13;;;;;;;4.83;4.43;;;;;;;27.75;54.98;100403.19;5079884;28;20181;-75
2023/06/25 09:32:52;;;;;;;5.17;4.77;;;;;;;27.48;54.47;100396.41;5092910;28;20583;-76
2023/06/25 09:35:25;;;;;;;5.43;4.63;;;;;;;27.42;54.60;100394.22;5090455;28;20566;-76
2023/06/25 09:37:52;;;;;;;5.17;4.67;;;;;;;27.60;54.63;100386.63;5083394;28;20188;-72
2023/06/25 09:40:21;;;;;;;5.23;4.80;;;;;;;27.77;54.54;100393.22;5090155;28;20197;-76
2023/06/25 09:42:54;;;;;;;4.70;4.30;;;;;;;27.93;53.50;100379.56;5082157;28;20200;-75
2023/06/25 09:45:21;;;;;;;4.87;4.27;;;;;;;28.16;54.08;100392.81;5081576;28;20209;-76
2023/06/25 09:47:49;;;;;;;4.70;4.33;;;;;;;27.80;53.29;100393.84;5082083;28;20254;-75
2023/06/25 09:50:18;;;;;;;5.33;4.83;;;;;;;27.71;53.97;100385.75;5077377;28;20190;-75
2023/06/25 09:52:50;;;;;;;5.63;5.13;;;;;;;27.85;54.82;100380.19;5080665;28;20232;-75
2023/06/25 09:55:17;;;;;;;5.27;4.77;;;;;;;28.11;55.00;100385.22;5083625;28;20199;-75
2023/06/25 09:57:42;;;;;;;4.93;4.53;;;;;;;28.29;53.31;100366.88;5090206;28;20216;-75
2023/06/25 10:00:10;;;;;;;5.77;5.23;;;;;;;28.03;54.51;100377.84;5089027;28;20215;-75
2023/06/25 10:02:36;;;;;;;6.33;5.73;;;;;;;27.91;55.87;100374.34;5090408;28;20209;-75
2023/06/25 10:05:03;;;;;;;5.80;5.40;;;;;;;27.76;55.22;100380.91;5094112;28;20193;-75
2023/06/25 10:07:30;;;;;;;5.57;5.00;;;;;;;27.69;55.08;100378.75;5082966;28;20206;-75
2023/06/25 10:09:56;;;;;;;5.70;5.20;;;;;;;27.66;54.82;100368.38;5079627;28;20220;-77
2023/06/25 10:12:21;;;;;;;6.20;5.40;;;;;;;27.75;55.00;100364.13;5081641;28;20201;-76
2023/06/25 10:14:48;;;;;;;5.67;5.17;;;;;;;27.97;54.47;100371.19;5087992;28;20615;-75
2023/06/25 10:17:13;;;;;;;5.70;5.30;;;;;;;28.01;53.95;100370.97;5081936;28;20665;-74
2023/06/25 10:19:38;;;;;;;5.53;5.10;;;;;;;28.16;53.86;100371.53;5085478;28;20189;-74
2023/06/25 10:22:06;;;;;;;5.87;5.37;;;;;;;28.24;53.36;100359.28;5082079;28;22042;-74
2023/06/25 10:24:42;;;;;;;6.00;5.33;;;;;;;28.25;53.60;100360.16;5078505;28;20238;-74
2023/06/25 10:27:20;;;;;;;5.73;5.23;;;;;;;28.25;52.68;100368.97;5072778;28;20204;-76
2023/06/25 10:29:46;;;;;;;5.37;4.87;;;;;;;28.03;52.49;100369.03;5083395;28;20192;-76
2023/06/25 10:32:14;;;;;;;6.07;5.60;;;;;;;28.04;52.70;100354.75;5080624;28;20211;-75
2023/06/25 10:34:40;;;;;;;5.60;5.20;;;;;;;28.03;52.90;100350.41;5090965;28;20193;-77
2023/06/25 10:37:07;;;;;;;6.30;5.70;;;;;;;28.22;52.73;100344.44;5077872;28;20181;-76
2023/06/25 10:39:39;;;;;;;6.10;5.50;;;;;;;28.00;52.78;100346.16;5091147;28;20193;-75
2023/06/25 10:42:05;;;;;;;5.70;5.00;;;;;;;28.21;52.81;100343.56;5093995;28;20627;-76
2023/06/25 10:44:31;;;;;;;6.10;5.60;;;;;;;28.21;52.29;100334.75;5089303;28;20205;-76
2023/06/25 10:47:03;;;;;;;6.23;5.73;;;;;;;28.18;52.03;100335.00;5090991;28;20204;-75
2023/06/25 10:49:29;;;;;;;5.80;5.30;;;;;;;28.45;52.08;100335.38;5083585;28;20186;-77
2023/06/25 10:52:02;;;;;;;5.60;5.10;;;;;;;28.28;52.21;100343.94;5090566;28;21456;-76
2023/06/25 10:54:27;;;;;;;6.40;5.83;;;;;;;28.28;52.09;100338.63;5082671;28;20698;-75
2023/06/25 10:57:14;;;;;;;6.03;5.53;;;;;;;28.44;51.80;100333.69;5091798;28;20264;-76
2023/06/25 10:59:40;;;;;;;6.20;5.60;;;;;;;28.39;51.71;100338.56;5088306;28;20185;-75
2023/06/25 11:02:08;;;;;;;5.50;5.10;;;;;;;28.48;51.78;100325.44;5098970;28;20253;-76
2023/06/25 11:04:34;;;;;;;6.57;5.97;;;;;;;28.63;52.05;100312.66;5082007;28;20193;-76
2023/06/25 11:06:59;;;;;;;6.47;5.70;;;;;;;28.75;52.37;100327.63;5088187;28;20215;-75
2023/06/25 11:09:24;;;;;;;5.43;5.00;;;;;;;28.55;51.29;100310.66;5086128;28;20198;-76
2023/06/25 11:11:52;;;;;;;5.87;5.43;;;;;;;28.40;51.37;100313.63;5088294;28;20248;-75
2023/06/25 11:14:17;;;;;;;6.23;5.63;;;;;;;28.44;51.19;100323.03;5103046;28;20208;-75
2023/06/25 11:16:46;;;;;;;7.27;5.47;;;;;;;28.50;51.86;100313.72;5084282;28;20204;-75
2023/06/25 11:19:12;;;;;;;6.17;5.67;;;;;;;28.60;51.27;100308.41;5085824;28;20661;-76
2023/06/25 11:21:37;;;;;;;6.43;5.93;;;;;;;28.66;51.44;100299.91;5094644;28;20242;-75